Terminal Aerodrome Forecast
Issued by NWS

Current Version | Previous Version | Graphics & Text | Print | Product List | Glossary On
Versions: 1 2 3 4 5 6 7 8 9 10 11 12 13 14 15 16 17 18 19 20 21
000
FTUS41 KPBZ 301600 AAA
TAFMGW
TAF AMD
KMGW 301600Z 3016/3112 28005KT P6SM BKN025
     FM301800 27005KT P6SM BKN035
     FM310600 23005KT P6SM OVC040=

USA.gov is the U.S. government's official web portal to all federal, state and local government web resources and services.